ilmateenistus.ee keskkonnaagentuur.ee
EETN Tallinna lennuväli
FTEO31 EETN 221100
TAF EETN 221130Z 2212/2312 16018G30KT 5000 SN BLSN BKN012 OVC020
    BECMG 2213/2215 0900 +SN BLSN VV004 TEMPO 2215/2221 2000 SN BLSN
    BKN005 OVC010 BECMG 2221/2222 22012KT 4000 RASN BR OVC004 TEMPO
    2222/2308 1000 DZ BR OVC002 BECMG 2308/2310 8000 BKN005 OVC013=

METAR EETN 221250Z 15015G25KT CAVOK M03/M08 Q0987 R08/19//95 BECMG 2000 SN BLSN BKN008=
Tallinna lennuväli
EEKA Kärdla lennuväli
METAR EEKA 221250Z 14021G31KT 0900 SN BLSN OVC009 M03/M04 Q0982=
Kärdla lennuväli
EEKE Kuressaare lennuväli
FCEO32 EETN 220600 AAA
TAF AMD EEKE 221000Z 2207/2213 CNL=

SPECI EEKE 221251Z AUTO 16028KT 0450NDV R17/0700N R35/0650N +SN BKN004 OVC012 M01/M01 Q0981=
Kuressaare lennuväli
EEPU Pärnu lennuväli
METAR EEPU 221250Z 12012G24KT 090V170 2700 -SN BR BKN007 M03/M07 Q0987=
Pärnu lennuväli
EETU Tartu lennuväli
METAR EETU 221250Z 15013KT 9999 FEW024 M04/M10 Q0992=
Tartu lennuväli
EEEI Ämari lennuväli
METAR EEEI 221250Z 13012G23KT 100V170 9999 BKN049 M03/M08 Q0986 R06/190095 NOSIG=
Ämari lennuväli